sensor_id;sensor_type;location;lat;lon;timestamp;temperature;humidity
2973;DHT22;1496;51.404;7.232;2022-12-07T00:01:42;4.40;99.90
2973;DHT22;1496;51.404;7.232;2022-12-07T00:04:11;4.50;99.90
2973;DHT22;1496;51.404;7.232;2022-12-07T00:06:43;4.50;99.90
2973;DHT22;1496;51.404;7.232;2022-12-07T00:09:12;4.50;99.90
2973;DHT22;1496;51.404;7.232;2022-12-07T00:11:38;4.50;99.90
2973;DHT22;1496;51.404;7.232;2022-12-07T00:14:07;4.50;99.90
2973;DHT22;1496;51.404;7.232;2022-12-07T00:16:34;4.50;99.90
2973;DHT22;1496;51.404;7.232;2022-12-07T00:19:00;4.50;99.90
2973;DHT22;1496;51.404;7.232;2022-12-07T00:21:31;4.50;99.90
2973;DHT22;1496;51.404;7.232;2022-12-07T00:23:57;4.50;99.90
2973;DHT22;1496;51.404;7.232;2022-12-07T00:26:31;4.50;99.90
2973;DHT22;1496;51.404;7.232;2022-12-07T00:29:05;4.50;99.90
2973;DHT22;1496;51.404;7.232;2022-12-07T00:31:36;4.50;99.90
2973;DHT22;1496;51.404;7.232;2022-12-07T00:34:05;4.50;99.90
2973;DHT22;1496;51.404;7.232;2022-12-07T00:36:32;4.50;99.90
2973;DHT22;1496;51.404;7.232;2022-12-07T00:38:59;4.50;99.90
2973;DHT22;1496;51.404;7.232;2022-12-07T00:41:26;4.50;99.90
2973;DHT22;1496;51.404;7.232;2022-12-07T00:43:52;4.40;99.90
2973;DHT22;1496;51.404;7.232;2022-12-07T00:46:20;4.50;99.90
2973;DHT22;1496;51.404;7.232;2022-12-07T00:48:51;4.50;99.90
2973;DHT22;1496;51.404;7.232;2022-12-07T00:51:19;4.50;99.90
2973;DHT22;1496;51.404;7.232;2022-12-07T00:53:45;4.50;99.90
2973;DHT22;1496;51.404;7.232;2022-12-07T00:56:31;4.50;99.90
2973;DHT22;1496;51.404;7.232;2022-12-07T00:58:59;4.50;99.90
2973;DHT22;1496;51.404;7.232;2022-12-07T01:01:33;4.50;99.90
2973;DHT22;1496;51.404;7.232;2022-12-07T01:04:04;4.50;99.90
2973;DHT22;1496;51.404;7.232;2022-12-07T01:06:57;4.60;99.90
2973;DHT22;1496;51.404;7.232;2022-12-07T01:09:23;4.50;99.90
2973;DHT22;1496;51.404;7.232;2022-12-07T01:11:48;4.60;99.90
2973;DHT22;1496;51.404;7.232;2022-12-07T01:14:14;4.50;99.90
2973;DHT22;1496;51.404;7.232;2022-12-07T01:16:40;4.60;99.90
2973;DHT22;1496;51.404;7.232;2022-12-07T01:19:05;4.50;99.90
2973;DHT22;1496;51.404;7.232;2022-12-07T01:21:33;4.50;99.90
2973;DHT22;1496;51.404;7.232;2022-12-07T01:24:00;4.50;99.90
2973;DHT22;1496;51.404;7.232;2022-12-07T01:26:26;4.50;99.90
2973;DHT22;1496;51.404;7.232;2022-12-07T01:28:53;4.60;99.90
2973;DHT22;1496;51.404;7.232;2022-12-07T01:31:35;4.50;99.90
2973;DHT22;1496;51.404;7.232;2022-12-07T01:34:03;4.50;99.90
2973;DHT22;1496;51.404;7.232;2022-12-07T01:36:31;4.50;99.90
2973;DHT22;1496;51.404;7.232;2022-12-07T01:38:59;4.50;99.90
2973;DHT22;1496;51.404;7.232;2022-12-07T01:41:31;4.50;99.90
2973;DHT22;1496;51.404;7.232;2022-12-07T01:46:43;4.50;99.90
2973;DHT22;1496;51.404;7.232;2022-12-07T01:49:14;4.60;99.90
2973;DHT22;1496;51.404;7.232;2022-12-07T01:51:42;4.60;99.90
2973;DHT22;1496;51.404;7.232;2022-12-07T01:54:10;4.60;99.90
2973;DHT22;1496;51.404;7.232;2022-12-07T01:56:38;4.60;99.90
2973;DHT22;1496;51.404;7.232;2022-12-07T01:59:05;4.60;99.90
2973;DHT22;1496;51.404;7.232;2022-12-07T02:01:31;4.60;99.90
2973;DHT22;1496;51.404;7.232;2022-12-07T02:03:58;4.60;99.90
2973;DHT22;1496;51.404;7.232;2022-12-07T02:06:24;4.60;99.90
2973;DHT22;1496;51.404;7.232;2022-12-07T02:08:51;4.60;99.90
2973;DHT22;1496;51.404;7.232;2022-12-07T02:11:17;4.60;99.90
2973;DHT22;1496;51.404;7.232;2022-12-07T02:13:45;4.60;99.90
2973;DHT22;1496;51.404;7.232;2022-12-07T02:16:32;4.60;99.90
2973;DHT22;1496;51.404;7.232;2022-12-07T02:22:25;4.60;99.90
2973;DHT22;1496;51.404;7.232;2022-12-07T02:25:30;4.70;99.90
2973;DHT22;1496;51.404;7.232;2022-12-07T02:28:05;4.60;99.90
2973;DHT22;1496;51.404;7.232;2022-12-07T02:30:35;4.70;99.90
2973;DHT22;1496;51.404;7.232;2022-12-07T02:35:44;4.50;99.90
2973;DHT22;1496;51.404;7.232;2022-12-07T02:38:35;4.50;99.90
2973;DHT22;1496;51.404;7.232;2022-12-07T02:41:09;4.60;99.90
2973;DHT22;1496;51.404;7.232;2022-12-07T02:43:50;4.60;99.90
2973;DHT22;1496;51.404;7.232;2022-12-07T02:46:27;4.60;99.90
2973;DHT22;1496;51.404;7.232;2022-12-07T02:48:54;4.60;99.90
2973;DHT22;1496;51.404;7.232;2022-12-07T02:51:21;4.60;99.90
2973;DHT22;1496;51.404;7.232;2022-12-07T02:53:47;4.60;99.90
2973;DHT22;1496;51.404;7.232;2022-12-07T02:56:27;4.60;99.90
2973;DHT22;1496;51.404;7.232;2022-12-07T02:59:17;4.60;99.90
2973;DHT22;1496;51.404;7.232;2022-12-07T03:04:59;4.60;99.90
2973;DHT22;1496;51.404;7.232;2022-12-07T03:13:25;4.50;99.90
2973;DHT22;1496;51.404;7.232;2022-12-07T03:16:11;4.50;99.90
2973;DHT22;1496;51.404;7.232;2022-12-07T03:21:40;4.50;99.90
2973;DHT22;1496;51.404;7.232;2022-12-07T03:24:11;4.50;99.90
2973;DHT22;1496;51.404;7.232;2022-12-07T03:26:42;4.40;99.90
2973;DHT22;1496;51.404;7.232;2022-12-07T03:29:24;4.40;99.90
2973;DHT22;1496;51.404;7.232;2022-12-07T03:32:20;4.40;99.90
2973;DHT22;1496;51.404;7.232;2022-12-07T03:35:03;4.40;99.90
2973;DHT22;1496;51.404;7.232;2022-12-07T03:37:41;4.40;99.90
2973;DHT22;1496;51.404;7.232;2022-12-07T03:40:18;4.40;99.90
2973;DHT22;1496;51.404;7.232;2022-12-07T03:42:45;4.40;99.90
2973;DHT22;1496;51.404;7.232;2022-12-07T03:45:12;4.30;99.90
2973;DHT22;1496;51.404;7.232;2022-12-07T03:50:25;4.30;99.90
2973;DHT22;1496;51.404;7.232;2022-12-07T03:52:56;4.30;99.90
2973;DHT22;1496;51.404;7.232;2022-12-07T03:55:28;4.30;99.90
2973;DHT22;1496;51.404;7.232;2022-12-07T03:57:59;4.30;99.90
2973;DHT22;1496;51.404;7.232;2022-12-07T04:00:26;4.30;99.90
2973;DHT22;1496;51.404;7.232;2022-12-07T04:02:52;4.30;99.90
2973;DHT22;1496;51.404;7.232;2022-12-07T04:05:18;4.30;99.90
2973;DHT22;1496;51.404;7.232;2022-12-07T04:07:45;4.20;99.90
2973;DHT22;1496;51.404;7.232;2022-12-07T04:10:10;4.30;99.90
2973;DHT22;1496;51.404;7.232;2022-12-07T04:12:36;4.20;99.90
2973;DHT22;1496;51.404;7.232;2022-12-07T04:15:03;4.20;99.90
2973;DHT22;1496;51.404;7.232;2022-12-07T04:17:29;4.20;99.90
2973;DHT22;1496;51.404;7.232;2022-12-07T04:19:55;4.20;99.90
2973;DHT22;1496;51.404;7.232;2022-12-07T04:22:20;4.20;99.90
2973;DHT22;1496;51.404;7.232;2022-12-07T04:24:46;4.20;99.90
2973;DHT22;1496;51.404;7.232;2022-12-07T04:27:12;4.20;99.90
2973;DHT22;1496;51.404;7.232;2022-12-07T04:29:37;4.20;99.90
2973;DHT22;1496;51.404;7.232;2022-12-07T04:32:03;4.20;99.90
2973;DHT22;1496;51.404;7.232;2022-12-07T04:34:29;4.20;99.90
2973;DHT22;1496;51.404;7.232;2022-12-07T04:36:54;4.10;99.90
2973;DHT22;1496;51.404;7.232;2022-12-07T04:39:26;4.10;99.90
2973;DHT22;1496;51.404;7.232;2022-12-07T04:41:52;4.10;99.90
2973;DHT22;1496;51.404;7.232;2022-12-07T04:44:18;4.20;99.90
2973;DHT22;1496;51.404;7.232;2022-12-07T04:46:45;4.10;99.90
2973;DHT22;1496;51.404;7.232;2022-12-07T04:49:12;4.10;99.90
2973;DHT22;1496;51.404;7.232;2022-12-07T04:51:38;4.10;99.90
2973;DHT22;1496;51.404;7.232;2022-12-07T04:54:04;4.10;99.90
2973;DHT22;1496;51.404;7.232;2022-12-07T04:56:30;4.10;99.90
2973;DHT22;1496;51.404;7.232;2022-12-07T04:58:55;4.10;99.90
2973;DHT22;1496;51.404;7.232;2022-12-07T05:01:22;4.20;99.90
2973;DHT22;1496;51.404;7.232;2022-12-07T05:03:48;4.10;99.90
2973;DHT22;1496;51.404;7.232;2022-12-07T05:06:15;4.10;99.90
2973;DHT22;1496;51.404;7.232;2022-12-07T05:08:41;4.10;99.90
2973;DHT22;1496;51.404;7.232;2022-12-07T05:11:07;4.20;99.90
2973;DHT22;1496;51.404;7.232;2022-12-07T05:13:34;4.10;99.90
2973;DHT22;1496;51.404;7.232;2022-12-07T05:16:00;4.20;99.90
2973;DHT22;1496;51.404;7.232;2022-12-07T05:18:26;4.20;99.90
2973;DHT22;1496;51.404;7.232;2022-12-07T05:20:52;4.10;99.90
2973;DHT22;1496;51.404;7.232;2022-12-07T05:23:18;4.10;99.90
2973;DHT22;1496;51.404;7.232;2022-12-07T05:25:44;4.10;99.90
2973;DHT22;1496;51.404;7.232;2022-12-07T05:28:10;4.10;99.90
2973;DHT22;1496;51.404;7.232;2022-12-07T05:30:36;4.10;99.90
2973;DHT22;1496;51.404;7.232;2022-12-07T05:33:02;4.10;99.90
2973;DHT22;1496;51.404;7.232;2022-12-07T05:35:28;4.10;99.90
2973;DHT22;1496;51.404;7.232;2022-12-07T05:38:07;4.10;99.90
2973;DHT22;1496;51.404;7.232;2022-12-07T05:40:34;4.10;99.90
2973;DHT22;1496;51.404;7.232;2022-12-07T05:43:00;4.10;99.90
2973;DHT22;1496;51.404;7.232;2022-12-07T05:45:25;4.00;99.90
2973;DHT22;1496;51.404;7.232;2022-12-07T05:47:51;4.00;99.90
2973;DHT22;1496;51.404;7.232;2022-12-07T05:50:16;4.00;99.90
2973;DHT22;1496;51.404;7.232;2022-12-07T05:52:43;4.00;99.90
2973;DHT22;1496;51.404;7.232;2022-12-07T05:55:09;4.00;99.90
2973;DHT22;1496;51.404;7.232;2022-12-07T05:57:34;4.00;99.90
2973;DHT22;1496;51.404;7.232;2022-12-07T06:00:01;4.00;99.90
2973;DHT22;1496;51.404;7.232;2022-12-07T06:02:26;4.00;99.90
2973;DHT22;1496;51.404;7.232;2022-12-07T06:04:52;4.00;99.90
2973;DHT22;1496;51.404;7.232;2022-12-07T06:07:17;3.90;99.90
2973;DHT22;1496;51.404;7.232;2022-12-07T06:09:43;4.00;99.90
2973;DHT22;1496;51.404;7.232;2022-12-07T06:12:10;4.10;99.90
2973;DHT22;1496;51.404;7.232;2022-12-07T06:14:55;4.10;99.90
2973;DHT22;1496;51.404;7.232;2022-12-07T06:17:21;4.00;99.90
2973;DHT22;1496;51.404;7.232;2022-12-07T06:19:46;4.00;99.90
2973;DHT22;1496;51.404;7.232;2022-12-07T06:22:12;4.00;99.90
2973;DHT22;1496;51.404;7.232;2022-12-07T06:24:39;3.90;99.90
2973;DHT22;1496;51.404;7.232;2022-12-07T06:27:05;4.00;99.90
2973;DHT22;1496;51.404;7.232;2022-12-07T06:29:31;3.90;99.90
2973;DHT22;1496;51.404;7.232;2022-12-07T06:31:57;3.90;99.90
2973;DHT22;1496;51.404;7.232;2022-12-07T06:34:23;4.00;99.90
2973;DHT22;1496;51.404;7.232;2022-12-07T06:36:50;3.90;99.90
2973;DHT22;1496;51.404;7.232;2022-12-07T06:39:20;3.90;99.90
2973;DHT22;1496;51.404;7.232;2022-12-07T06:41:46;3.90;99.90
2973;DHT22;1496;51.404;7.232;2022-12-07T06:44:11;3.90;99.90
2973;DHT22;1496;51.404;7.232;2022-12-07T06:46:37;3.90;99.90
2973;DHT22;1496;51.404;7.232;2022-12-07T06:49:04;3.90;99.90
2973;DHT22;1496;51.404;7.232;2022-12-07T06:51:31;3.90;99.90
2973;DHT22;1496;51.404;7.232;2022-12-07T06:53:57;4.00;99.90
2973;DHT22;1496;51.404;7.232;2022-12-07T06:56:23;3.90;99.90
2973;DHT22;1496;51.404;7.232;2022-12-07T06:58:49;3.90;99.90
2973;DHT22;1496;51.404;7.232;2022-12-07T07:01:17;3.90;99.90
2973;DHT22;1496;51.404;7.232;2022-12-07T07:03:44;3.80;99.90
2973;DHT22;1496;51.404;7.232;2022-12-07T07:06:10;3.80;99.90
2973;DHT22;1496;51.404;7.232;2022-12-07T07:08:37;3.90;99.90
2973;DHT22;1496;51.404;7.232;2022-12-07T07:11:04;3.90;99.90
2973;DHT22;1496;51.404;7.232;2022-12-07T07:13:30;3.80;99.90
2973;DHT22;1496;51.404;7.232;2022-12-07T07:15:56;3.90;99.90
2973;DHT22;1496;51.404;7.232;2022-12-07T07:18:23;4.00;99.90
2973;DHT22;1496;51.404;7.232;2022-12-07T07:20:50;3.90;99.90
2973;DHT22;1496;51.404;7.232;2022-12-07T07:23:16;3.90;99.90
2973;DHT22;1496;51.404;7.232;2022-12-07T07:25:42;3.80;99.90
2973;DHT22;1496;51.404;7.232;2022-12-07T07:28:07;3.80;99.90
2973;DHT22;1496;51.404;7.232;2022-12-07T07:30:33;3.90;99.90
2973;DHT22;1496;51.404;7.232;2022-12-07T07:33:00;3.90;99.90
2973;DHT22;1496;51.404;7.232;2022-12-07T07:35:27;3.80;99.90
2973;DHT22;1496;51.404;7.232;2022-12-07T07:37:53;3.80;99.90
2973;DHT22;1496;51.404;7.232;2022-12-07T07:40:19;3.80;99.90
2973;DHT22;1496;51.404;7.232;2022-12-07T07:42:52;3.80;99.90
2973;DHT22;1496;51.404;7.232;2022-12-07T07:45:20;3.80;99.90
2973;DHT22;1496;51.404;7.232;2022-12-07T07:47:47;3.90;99.90
2973;DHT22;1496;51.404;7.232;2022-12-07T07:50:13;3.80;99.90
2973;DHT22;1496;51.404;7.232;2022-12-07T07:52:39;3.80;99.90
2973;DHT22;1496;51.404;7.232;2022-12-07T07:55:05;3.70;99.90
2973;DHT22;1496;51.404;7.232;2022-12-07T07:57:32;3.70;99.90
2973;DHT22;1496;51.404;7.232;2022-12-07T07:59:58;3.70;99.90
2973;DHT22;1496;51.404;7.232;2022-12-07T08:02:24;3.70;99.90
2973;DHT22;1496;51.404;7.232;2022-12-07T08:04:49;3.70;99.90
2973;DHT22;1496;51.404;7.232;2022-12-07T08:07:15;3.70;99.90
2973;DHT22;1496;51.404;7.232;2022-12-07T08:09:41;3.80;99.90
2973;DHT22;1496;51.404;7.232;2022-12-07T08:12:07;3.70;99.90
2973;DHT22;1496;51.404;7.232;2022-12-07T08:14:33;3.80;99.90
2973;DHT22;1496;51.404;7.232;2022-12-07T08:16:59;3.80;99.90
2973;DHT22;1496;51.404;7.232;2022-12-07T08:19:25;3.80;99.90
2973;DHT22;1496;51.404;7.232;2022-12-07T08:21:51;3.80;99.90
2973;DHT22;1496;51.404;7.232;2022-12-07T08:24:16;3.90;99.90
2973;DHT22;1496;51.404;7.232;2022-12-07T08:26:42;3.80;99.90
2973;DHT22;1496;51.404;7.232;2022-12-07T08:29:08;3.90;99.90
2973;DHT22;1496;51.404;7.232;2022-12-07T08:31:34;3.90;99.90
2973;DHT22;1496;51.404;7.232;2022-12-07T08:34:00;3.90;99.90
2973;DHT22;1496;51.404;7.232;2022-12-07T08:36:26;3.90;99.90
2973;DHT22;1496;51.404;7.232;2022-12-07T08:38:52;3.90;99.90
2973;DHT22;1496;51.404;7.232;2022-12-07T08:41:18;3.90;99.90
2973;DHT22;1496;51.404;7.232;2022-12-07T08:43:44;3.90;99.90
2973;DHT22;1496;51.404;7.232;2022-12-07T08:46:13;3.90;99.90
2973;DHT22;1496;51.404;7.232;2022-12-07T08:48:58;4.00;99.90
2973;DHT22;1496;51.404;7.232;2022-12-07T08:51:25;4.00;99.90
2973;DHT22;1496;51.404;7.232;2022-12-07T08:53:52;4.00;99.90
2973;DHT22;1496;51.404;7.232;2022-12-07T08:56:19;4.10;99.90
2973;DHT22;1496;51.404;7.232;2022-12-07T08:58:45;4.00;99.90
2973;DHT22;1496;51.404;7.232;2022-12-07T09:01:11;4.00;99.90
2973;DHT22;1496;51.404;7.232;2022-12-07T09:03:36;4.00;99.90
2973;DHT22;1496;51.404;7.232;2022-12-07T09:06:02;4.10;99.90
2973;DHT22;1496;51.404;7.232;2022-12-07T09:08:37;4.10;99.90
2973;DHT22;1496;51.404;7.232;2022-12-07T09:11:04;4.10;99.90
2973;DHT22;1496;51.404;7.232;2022-12-07T09:13:30;4.10;99.90
2973;DHT22;1496;51.404;7.232;2022-12-07T09:15:55;4.10;99.90
2973;DHT22;1496;51.404;7.232;2022-12-07T09:18:21;4.10;99.90
2973;DHT22;1496;51.404;7.232;2022-12-07T09:20:47;4.20;99.90
2973;DHT22;1496;51.404;7.232;2022-12-07T09:23:12;4.10;99.90
2973;DHT22;1496;51.404;7.232;2022-12-07T09:25:38;4.20;99.90
2973;DHT22;1496;51.404;7.232;2022-12-07T09:28:03;4.20;99.90
2973;DHT22;1496;51.404;7.232;2022-12-07T09:30:29;4.10;99.90
2973;DHT22;1496;51.404;7.232;2022-12-07T09:32:56;4.10;99.90
2973;DHT22;1496;51.404;7.232;2022-12-07T09:35:25;4.10;99.90
2973;DHT22;1496;51.404;7.232;2022-12-07T09:37:50;4.10;99.90
2973;DHT22;1496;51.404;7.232;2022-12-07T09:40:18;4.10;99.90
2973;DHT22;1496;51.404;7.232;2022-12-07T09:42:47;4.10;99.90
2973;DHT22;1496;51.404;7.232;2022-12-07T09:45:20;4.20;99.90
2973;DHT22;1496;51.404;7.232;2022-12-07T09:47:46;4.20;99.90
2973;DHT22;1496;51.404;7.232;2022-12-07T09:50:15;4.20;99.90
2973;DHT22;1496;51.404;7.232;2022-12-07T09:52:44;4.30;99.90
2973;DHT22;1496;51.404;7.232;2022-12-07T09:55:12;4.20;99.90
2973;DHT22;1496;51.404;7.232;2022-12-07T09:57:39;4.20;99.90
2973;DHT22;1496;51.404;7.232;2022-12-07T10:00:11;4.30;99.90
2973;DHT22;1496;51.404;7.232;2022-12-07T10:02:51;4.30;99.90
2973;DHT22;1496;51.404;7.232;2022-12-07T10:05:24;4.30;99.90
2973;DHT22;1496;51.404;7.232;2022-12-07T10:07:51;4.20;99.90
2973;DHT22;1496;51.404;7.232;2022-12-07T10:10:26;4.30;99.90
2973;DHT22;1496;51.404;7.232;2022-12-07T10:12:54;4.30;99.90
2973;DHT22;1496;51.404;7.232;2022-12-07T10:15:20;4.40;99.90
2973;DHT22;1496;51.404;7.232;2022-12-07T10:17:51;4.40;99.90
2973;DHT22;1496;51.404;7.232;2022-12-07T10:20:24;4.50;99.90
2973;DHT22;1496;51.404;7.232;2022-12-07T10:25:33;4.50;99.90
2973;DHT22;1496;51.404;7.232;2022-12-07T10:33:32;4.50;99.90
2973;DHT22;1496;51.404;7.232;2022-12-07T10:36:00;4.50;99.90
2973;DHT22;1496;51.404;7.232;2022-12-07T10:38:27;4.50;99.90
2973;DHT22;1496;51.404;7.232;2022-12-07T10:41:06;4.60;99.90
2973;DHT22;1496;51.404;7.232;2022-12-07T10:43:32;4.60;99.90
2973;DHT22;1496;51.404;7.232;2022-12-07T10:49:08;4.60;99.90
2973;DHT22;1496;51.404;7.232;2022-12-07T10:51:41;4.50;99.90
2973;DHT22;1496;51.404;7.232;2022-12-07T10:54:34;4.60;99.90
2973;DHT22;1496;51.404;7.232;2022-12-07T11:00:06;4.60;99.90
2973;DHT22;1496;51.404;7.232;2022-12-07T11:05:21;4.70;99.90
2973;DHT22;1496;51.404;7.232;2022-12-07T11:08:21;4.70;99.90
2973;DHT22;1496;51.404;7.232;2022-12-07T11:16:29;4.90;99.90
2973;DHT22;1496;51.404;7.232;2022-12-07T11:21:28;4.90;99.90
2973;DHT22;1496;51.404;7.232;2022-12-07T11:24:27;4.90;99.90
2973;DHT22;1496;51.404;7.232;2022-12-07T11:29:48;4.80;99.90
2973;DHT22;1496;51.404;7.232;2022-12-07T11:32:40;4.80;99.90
2973;DHT22;1496;51.404;7.232;2022-12-07T11:38:35;4.90;99.90
2973;DHT22;1496;51.404;7.232;2022-12-07T11:41:05;4.90;99.90
2973;DHT22;1496;51.404;7.232;2022-12-07T11:43:57;4.90;99.90
2973;DHT22;1496;51.404;7.232;2022-12-07T11:46:28;4.90;99.90
2973;DHT22;1496;51.404;7.232;2022-12-07T11:49:05;5.00;99.90
2973;DHT22;1496;51.404;7.232;2022-12-07T11:51:37;5.00;99.90
2973;DHT22;1496;51.404;7.232;2022-12-07T11:54:23;5.00;99.90
2973;DHT22;1496;51.404;7.232;2022-12-07T11:56:52;5.00;99.90
2973;DHT22;1496;51.404;7.232;2022-12-07T11:59:56;4.90;99.90
2973;DHT22;1496;51.404;7.232;2022-12-07T12:02:32;4.90;99.90
2973;DHT22;1496;51.404;7.232;2022-12-07T12:05:19;4.90;99.90
2973;DHT22;1496;51.404;7.232;2022-12-07T12:08:23;4.90;99.90
2973;DHT22;1496;51.404;7.232;2022-12-07T12:10:58;5.00;99.90
2973;DHT22;1496;51.404;7.232;2022-12-07T12:13:34;5.00;99.90
2973;DHT22;1496;51.404;7.232;2022-12-07T12:16:25;5.00;99.90
2973;DHT22;1496;51.404;7.232;2022-12-07T12:19:19;5.00;99.90
2973;DHT22;1496;51.404;7.232;2022-12-07T12:21:53;5.00;99.90
2973;DHT22;1496;51.404;7.232;2022-12-07T12:24:23;5.00;99.90
2973;DHT22;1496;51.404;7.232;2022-12-07T12:27:01;5.00;99.90
2973;DHT22;1496;51.404;7.232;2022-12-07T12:29:39;5.00;99.90
2973;DHT22;1496;51.404;7.232;2022-12-07T12:32:15;5.00;99.90
2973;DHT22;1496;51.404;7.232;2022-12-07T12:34:58;5.00;99.90
2973;DHT22;1496;51.404;7.232;2022-12-07T12:42:50;5.00;99.90
2973;DHT22;1496;51.404;7.232;2022-12-07T12:45:25;5.00;99.90
2973;DHT22;1496;51.404;7.232;2022-12-07T12:48:04;5.10;99.90
2973;DHT22;1496;51.404;7.232;2022-12-07T12:50:35;5.10;99.90
2973;DHT22;1496;51.404;7.232;2022-12-07T12:56:23;5.10;99.90
2973;DHT22;1496;51.404;7.232;2022-12-07T13:04:49;5.20;99.90
2973;DHT22;1496;51.404;7.232;2022-12-07T13:07:51;5.10;99.90
2973;DHT22;1496;51.404;7.232;2022-12-07T13:29:19;5.10;99.90
2973;DHT22;1496;51.404;7.232;2022-12-07T13:31:52;5.20;99.90
2973;DHT22;1496;51.404;7.232;2022-12-07T13:34:40;5.20;99.90
2973;DHT22;1496;51.404;7.232;2022-12-07T13:37:27;5.20;99.90
2973;DHT22;1496;51.404;7.232;2022-12-07T13:44:55;5.20;99.90
2973;DHT22;1496;51.404;7.232;2022-12-07T13:49:56;5.10;99.90
2973;DHT22;1496;51.404;7.232;2022-12-07T13:52:27;5.10;99.90
2973;DHT22;1496;51.404;7.232;2022-12-07T13:55:13;5.10;99.90
2973;DHT22;1496;51.404;7.232;2022-12-07T13:57:40;5.10;99.90
2973;DHT22;1496;51.404;7.232;2022-12-07T14:00:16;5.20;99.90
2973;DHT22;1496;51.404;7.232;2022-12-07T14:05:35;5.20;99.90
2973;DHT22;1496;51.404;7.232;2022-12-07T14:08:04;5.20;99.90
2973;DHT22;1496;51.404;7.232;2022-12-07T14:10:32;5.10;99.90
2973;DHT22;1496;51.404;7.232;2022-12-07T14:12:59;5.10;99.90
2973;DHT22;1496;51.404;7.232;2022-12-07T14:15:29;5.10;99.90
2973;DHT22;1496;51.404;7.232;2022-12-07T14:17:56;5.10;99.90
2973;DHT22;1496;51.404;7.232;2022-12-07T14:22:57;5.10;99.90
2973;DHT22;1496;51.404;7.232;2022-12-07T14:25:24;5.10;99.90
2973;DHT22;1496;51.404;7.232;2022-12-07T14:27:58;5.00;99.90
2973;DHT22;1496;51.404;7.232;2022-12-07T14:30:29;4.90;99.90
2973;DHT22;1496;51.404;7.232;2022-12-07T14:32:59;4.90;99.90
2973;DHT22;1496;51.404;7.232;2022-12-07T14:35:26;4.80;99.90
2973;DHT22;1496;51.404;7.232;2022-12-07T14:37:52;4.70;99.90
2973;DHT22;1496;51.404;7.232;2022-12-07T14:40:26;4.70;99.90
2973;DHT22;1496;51.404;7.232;2022-12-07T14:43:12;4.60;99.90
2973;DHT22;1496;51.404;7.232;2022-12-07T14:45:40;4.60;99.90
2973;DHT22;1496;51.404;7.232;2022-12-07T14:48:15;4.60;99.90
2973;DHT22;1496;51.404;7.232;2022-12-07T14:50:45;4.60;99.90
2973;DHT22;1496;51.404;7.232;2022-12-07T14:53:17;4.50;99.90
2973;DHT22;1496;51.404;7.232;2022-12-07T14:55:43;4.50;99.90
2973;DHT22;1496;51.404;7.232;2022-12-07T14:58:13;4.50;99.90
2973;DHT22;1496;51.404;7.232;2022-12-07T15:00:39;4.40;99.90
2973;DHT22;1496;51.404;7.232;2022-12-07T15:03:05;4.40;99.90
2973;DHT22;1496;51.404;7.232;2022-12-07T15:05:32;4.30;99.90
2973;DHT22;1496;51.404;7.232;2022-12-07T15:07:58;4.30;99.90
2973;DHT22;1496;51.404;7.232;2022-12-07T15:10:29;4.50;99.90
2973;DHT22;1496;51.404;7.232;2022-12-07T15:12:57;4.40;99.90
2973;DHT22;1496;51.404;7.232;2022-12-07T15:15:55;4.30;99.90
2973;DHT22;1496;51.404;7.232;2022-12-07T15:18:24;4.20;99.90
2973;DHT22;1496;51.404;7.232;2022-12-07T15:20:50;4.20;99.90
2973;DHT22;1496;51.404;7.232;2022-12-07T15:23:15;4.10;99.90
2973;DHT22;1496;51.404;7.232;2022-12-07T15:25:46;4.10;99.90
2973;DHT22;1496;51.404;7.232;2022-12-07T15:28:12;4.00;99.90
2973;DHT22;1496;51.404;7.232;2022-12-07T15:30:38;4.00;99.90
2973;DHT22;1496;51.404;7.232;2022-12-07T15:33:04;4.00;99.90
2973;DHT22;1496;51.404;7.232;2022-12-07T15:35:46;4.00;99.90
2973;DHT22;1496;51.404;7.232;2022-12-07T15:38:12;3.90;99.90
2973;DHT22;1496;51.404;7.232;2022-12-07T15:40:38;4.00;99.90
2973;DHT22;1496;51.404;7.232;2022-12-07T15:43:04;3.90;99.90
2973;DHT22;1496;51.404;7.232;2022-12-07T15:45:30;3.90;99.90
2973;DHT22;1496;51.404;7.232;2022-12-07T15:47:55;3.80;99.90
2973;DHT22;1496;51.404;7.232;2022-12-07T15:50:22;3.90;99.90
2973;DHT22;1496;51.404;7.232;2022-12-07T15:52:54;3.90;99.90
2973;DHT22;1496;51.404;7.232;2022-12-07T15:55:20;3.80;99.90
2973;DHT22;1496;51.404;7.232;2022-12-07T15:57:46;3.80;99.90
2973;DHT22;1496;51.404;7.232;2022-12-07T16:00:12;3.90;99.90
2973;DHT22;1496;51.404;7.232;2022-12-07T16:02:38;3.80;99.90
2973;DHT22;1496;51.404;7.232;2022-12-07T16:05:04;3.80;99.90
2973;DHT22;1496;51.404;7.232;2022-12-07T16:07:29;3.80;99.90
2973;DHT22;1496;51.404;7.232;2022-12-07T16:09:55;3.90;99.90
2973;DHT22;1496;51.404;7.232;2022-12-07T16:12:21;3.80;99.90
2973;DHT22;1496;51.404;7.232;2022-12-07T16:14:46;3.80;99.90
2973;DHT22;1496;51.404;7.232;2022-12-07T16:17:12;3.90;99.90
2973;DHT22;1496;51.404;7.232;2022-12-07T16:19:38;3.90;99.90
2973;DHT22;1496;51.404;7.232;2022-12-07T16:22:04;3.90;99.90
2973;DHT22;1496;51.404;7.232;2022-12-07T16:24:31;3.90;99.90
2973;DHT22;1496;51.404;7.232;2022-12-07T16:26:57;4.00;99.90
2973;DHT22;1496;51.404;7.232;2022-12-07T16:29:23;4.00;99.90
2973;DHT22;1496;51.404;7.232;2022-12-07T16:31:50;4.10;99.90
2973;DHT22;1496;51.404;7.232;2022-12-07T16:34:16;4.10;99.90
2973;DHT22;1496;51.404;7.232;2022-12-07T16:36:42;4.10;99.90
2973;DHT22;1496;51.404;7.232;2022-12-07T16:39:09;4.10;99.90
2973;DHT22;1496;51.404;7.232;2022-12-07T16:41:35;4.10;99.90
2973;DHT22;1496;51.404;7.232;2022-12-07T16:44:07;4.10;99.90
2973;DHT22;1496;51.404;7.232;2022-12-07T16:46:34;4.20;99.90
2973;DHT22;1496;51.404;7.232;2022-12-07T16:49:01;4.20;99.90
2973;DHT22;1496;51.404;7.232;2022-12-07T16:51:26;4.30;99.90
2973;DHT22;1496;51.404;7.232;2022-12-07T16:53:53;4.30;99.90
2973;DHT22;1496;51.404;7.232;2022-12-07T16:56:19;4.30;99.90
2973;DHT22;1496;51.404;7.232;2022-12-07T16:58:46;4.40;99.90
2973;DHT22;1496;51.404;7.232;2022-12-07T17:03:54;4.30;99.90
2973;DHT22;1496;51.404;7.232;2022-12-07T17:06:24;4.20;99.90
2973;DHT22;1496;51.404;7.232;2022-12-07T17:08:51;4.20;99.90
2973;DHT22;1496;51.404;7.232;2022-12-07T17:11:24;4.20;99.90
2973;DHT22;1496;51.404;7.232;2022-12-07T17:13:50;4.20;99.90
2973;DHT22;1496;51.404;7.232;2022-12-07T17:16:35;4.10;99.90
2973;DHT22;1496;51.404;7.232;2022-12-07T17:19:04;4.10;99.90
2973;DHT22;1496;51.404;7.232;2022-12-07T17:21:31;4.10;99.90
2973;DHT22;1496;51.404;7.232;2022-12-07T17:23:59;4.10;99.90
2973;DHT22;1496;51.404;7.232;2022-12-07T17:26:26;4.10;99.90
2973;DHT22;1496;51.404;7.232;2022-12-07T17:28:51;4.10;99.90
2973;DHT22;1496;51.404;7.232;2022-12-07T17:31:19;4.20;99.90
2973;DHT22;1496;51.404;7.232;2022-12-07T17:33:45;4.20;99.90
2973;DHT22;1496;51.404;7.232;2022-12-07T17:36:12;4.10;99.90
2973;DHT22;1496;51.404;7.232;2022-12-07T17:38:38;4.20;99.90
2973;DHT22;1496;51.404;7.232;2022-12-07T17:41:11;4.20;99.90
2973;DHT22;1496;51.404;7.232;2022-12-07T17:43:38;4.20;99.90
2973;DHT22;1496;51.404;7.232;2022-12-07T17:46:10;4.30;99.90
2973;DHT22;1496;51.404;7.232;2022-12-07T17:48:36;4.20;99.90
2973;DHT22;1496;51.404;7.232;2022-12-07T17:51:02;4.30;99.90
2973;DHT22;1496;51.404;7.232;2022-12-07T17:53:49;4.20;99.90
2973;DHT22;1496;51.404;7.232;2022-12-07T17:56:15;4.30;99.90
2973;DHT22;1496;51.404;7.232;2022-12-07T17:58:40;4.30;99.90
2973;DHT22;1496;51.404;7.232;2022-12-07T18:01:09;4.30;99.90
2973;DHT22;1496;51.404;7.232;2022-12-07T18:03:35;4.30;99.90
2973;DHT22;1496;51.404;7.232;2022-12-07T18:06:01;4.40;99.90
2973;DHT22;1496;51.404;7.232;2022-12-07T18:08:27;4.30;99.90
2973;DHT22;1496;51.404;7.232;2022-12-07T18:10:59;4.30;99.90
2973;DHT22;1496;51.404;7.232;2022-12-07T18:13:25;4.30;99.90
2973;DHT22;1496;51.404;7.232;2022-12-07T18:16:00;4.20;99.90
2973;DHT22;1496;51.404;7.232;2022-12-07T18:18:26;4.20;99.90